Time;durP1;ratioP1;P1;durP2;ratioP2;P2;SDS_P1;SDS_P2;PMS_P1;PMS_P2;Temp;Humidity;BMP_temperature;BMP_pressure;BME280_temperature;BME280_humidity;BME280_pressure;Samples;Min_cycle;Max_cycle;Signal;HPM_P1;HPM_P2
2022/08/27 00:00:43;;;;;;;11.93;5.75;;;;;;;;;;5059252;28;20227;-74
2022/08/27 00:03:11;;;;;;;10.23;5.25;;;;;;;;;;5040127;28;20223;-73
2022/08/27 00:05:37;;;;;;;10.13;5.65;;;;;;;;;;5075811;28;20235;-73
2022/08/27 00:08:08;;;;;;;10.65;5.78;;;;;;;;;;5054904;28;20275;-74
2022/08/27 00:10:33;;;;;;;14.13;5.95;;;;;;;;;;5058099;28;20226;-74
2022/08/27 00:13:04;;;;;;;10.43;4.97;;;;;;;;;;5064728;28;20226;-74
2022/08/27 00:15:29;;;;;;;7.85;4.85;;;;;;;;;;5054852;28;20227;-74
2022/08/27 00:17:59;;;;;;;11.25;5.18;;;;;;;;;;5047845;28;20810;-73
2022/08/27 00:20:27;;;;;;;9.18;4.70;;;;;;;;;;5054275;28;20233;-74
2022/08/27 00:22:52;;;;;;;8.30;4.50;;;;;;;;;;5076661;28;20226;-73
2022/08/27 00:25:20;;;;;;;7.97;4.07;;;;;;;;;;5051767;28;20233;-74
2022/08/27 00:27:48;;;;;;;9.48;4.57;;;;;;;;;;5058038;28;20683;-73
2022/08/27 00:30:20;;;;;;;8.00;4.40;;;;;;;;;;5038701;28;20715;-74
2022/08/27 00:32:50;;;;;;;8.73;4.15;;;;;;;;;;5049769;28;20210;-75
2022/08/27 00:35:18;;;;;;;8.50;4.32;;;;;;;;;;5042417;28;20273;-74
2022/08/27 00:37:46;;;;;;;6.75;3.88;;;;;;;;;;5062540;28;20227;-75
2022/08/27 00:40:18;;;;;;;8.68;3.92;;;;;;;;;;5040943;28;20215;-75
2022/08/27 00:42:46;;;;;;;6.70;4.05;;;;;;;;;;5070209;28;20343;-75
2022/08/27 00:45:18;;;;;;;14.57;4.10;;;;;;;;;;5058604;28;20228;-76
2022/08/27 00:47:48;;;;;;;8.82;4.40;;;;;;;;;;5063032;28;20249;-75
2022/08/27 00:50:22;;;;;;;6.07;4.10;;;;;;;;;;5044859;28;20246;-74
2022/08/27 00:52:53;;;;;;;9.07;4.13;;;;;;;;;;5038767;28;20279;-75
2022/08/27 00:55:28;;;;;;;9.35;3.83;;;;;;;;;;5058950;28;20289;-75
2022/08/27 00:58:03;;;;;;;7.53;4.18;;;;;;;;;;5058386;28;20236;-75
2022/08/27 01:00:33;;;;;;;7.60;4.32;;;;;;;;;;5018743;28;20222;-75
2022/08/27 01:03:01;;;;;;;7.82;4.68;;;;;;;;;;5054700;28;20230;-75
2022/08/27 01:05:27;;;;;;;10.13;4.60;;;;;;;;;;5057665;28;20566;-75
2022/08/27 01:07:55;;;;;;;8.88;4.47;;;;;;;;;;5055856;28;20231;-76
2022/08/27 01:10:21;;;;;;;10.27;4.50;;;;;;;;;;5041943;28;20230;-75
2022/08/27 01:12:52;;;;;;;9.52;3.67;;;;;;;;;;5042143;28;20233;-75
2022/08/27 01:15:24;;;;;;;7.68;3.72;;;;;;;;;;5044013;28;20228;-74
2022/08/27 01:17:50;;;;;;;5.85;3.90;;;;;;;;;;5048415;28;20689;-74
2022/08/27 01:20:21;;;;;;;10.13;4.20;;;;;;;;;;5037812;28;20218;-74
2022/08/27 01:23:15;;;;;;;6.82;3.80;;;;;;;;;;5044825;28;20215;-74
2022/08/27 01:25:44;;;;;;;7.97;3.85;;;;;;;;;;5046301;28;20235;-75
2022/08/27 01:28:12;;;;;;;6.95;3.83;;;;;;;;;;5044582;28;20894;-74
2022/08/27 01:30:39;;;;;;;8.32;3.88;;;;;;;;;;5044808;28;20225;-74
2022/08/27 01:33:17;;;;;;;9.63;3.83;;;;;;;;;;5063607;28;20253;-75
2022/08/27 01:35:43;;;;;;;7.35;4.13;;;;;;;;;;5067563;28;20245;-74
2022/08/27 01:38:11;;;;;;;8.73;3.95;;;;;;;;;;5042238;28;20225;-74
2022/08/27 01:40:40;;;;;;;8.13;4.18;;;;;;;;;;5073379;28;20529;-73
2022/08/27 01:43:08;;;;;;;6.15;3.60;;;;;;;;;;5080212;28;20222;-74
2022/08/27 01:45:40;;;;;;;6.20;3.63;;;;;;;;;;5064880;28;20229;-75
2022/08/27 01:48:10;;;;;;;7.15;3.80;;;;;;;;;;5063732;28;20652;-74
2022/08/27 01:50:41;;;;;;;7.70;4.30;;;;;;;;;;5078408;28;20214;-74
2022/08/27 01:53:12;;;;;;;8.50;4.75;;;;;;;;;;5059092;28;20226;-74
2022/08/27 01:55:38;;;;;;;6.82;4.05;;;;;;;;;;5079968;28;20222;-75
2022/08/27 01:58:04;;;;;;;8.93;4.50;;;;;;;;;;5069282;28;20233;-74
2022/08/27 02:00:31;;;;;;;8.38;4.75;;;;;;;;;;5062501;28;20225;-75
2022/08/27 02:03:01;;;;;;;9.70;4.75;;;;;;;;;;5047183;28;20225;-74
2022/08/27 02:05:31;;;;;;;5.97;4.22;;;;;;;;;;5041616;28;20223;-74
2022/08/27 02:08:02;;;;;;;8.55;4.65;;;;;;;;;;5054234;28;20219;-74
2022/08/27 02:10:36;;;;;;;9.27;4.75;;;;;;;;;;5053212;28;20226;-74
2022/08/27 02:13:05;;;;;;;6.75;4.38;;;;;;;;;;5053544;28;20223;-75
2022/08/27 02:15:33;;;;;;;8.88;4.85;;;;;;;;;;5047818;28;20226;-75
2022/08/27 02:18:01;;;;;;;9.23;5.28;;;;;;;;;;5080135;28;20305;-75
2022/08/27 02:20:30;;;;;;;7.82;5.32;;;;;;;;;;5044420;28;20274;-74
2022/08/27 02:23:00;;;;;;;9.40;4.80;;;;;;;;;;5055656;28;20585;-74
2022/08/27 02:25:27;;;;;;;6.55;4.45;;;;;;;;;;5059642;28;20313;-75
2022/08/27 02:27:58;;;;;;;8.95;4.70;;;;;;;;;;5071638;28;20245;-74
2022/08/27 02:30:30;;;;;;;8.10;4.70;;;;;;;;;;5029886;28;20222;-74
2022/08/27 02:32:56;;;;;;;11.48;4.47;;;;;;;;;;5061735;28;20222;-75
2022/08/27 02:35:24;;;;;;;7.63;4.15;;;;;;;;;;5042890;28;20233;-75
2022/08/27 02:37:50;;;;;;;10.52;4.68;;;;;;;;;;5041930;28;20229;-75
2022/08/27 02:40:16;;;;;;;8.02;4.10;;;;;;;;;;5073177;28;20214;-75
2022/08/27 02:42:45;;;;;;;8.07;4.32;;;;;;;;;;5049597;28;20218;-75
2022/08/27 02:45:12;;;;;;;9.52;3.90;;;;;;;;;;5064895;28;20222;-75
2022/08/27 02:47:37;;;;;;;9.98;3.78;;;;;;;;;;5059103;28;20206;-75
2022/08/27 02:50:03;;;;;;;7.95;4.47;;;;;;;;;;5078439;28;20280;-76
2022/08/27 02:52:31;;;;;;;7.65;4.38;;;;;;;;;;5069071;28;20218;-75
2022/08/27 02:55:01;;;;;;;7.72;4.50;;;;;;;;;;5064916;28;20234;-75
2022/08/27 02:57:30;;;;;;;8.07;4.13;;;;;;;;;;5077864;28;20222;-76
2022/08/27 02:59:58;;;;;;;8.15;4.30;;;;;;;;;;5080942;28;20735;-75
2022/08/27 03:02:30;;;;;;;10.55;3.95;;;;;;;;;;5050265;28;20271;-75
2022/08/27 03:05:03;;;;;;;6.38;3.97;;;;;;;;;;5064689;28;20274;-75
2022/08/27 03:07:33;;;;;;;7.78;4.03;;;;;;;;;;5042710;28;20302;-75
2022/08/27 03:09:59;;;;;;;7.07;4.28;;;;;;;;;;5061455;28;20939;-76
2022/08/27 03:12:25;;;;;;;9.25;3.72;;;;;;;;;;5062399;28;20216;-74
2022/08/27 03:14:55;;;;;;;8.57;4.10;;;;;;;;;;5069777;28;20574;-75
2022/08/27 03:20:06;;;;;;;8.88;4.28;;;;;;;;;;5057076;28;20225;-75
2022/08/27 03:22:36;;;;;;;8.45;4.03;;;;;;;;;;5050721;28;20215;-74
2022/08/27 03:25:02;;;;;;;7.97;4.40;;;;;;;;;;5039074;28;20234;-74
2022/08/27 03:27:28;;;;;;;7.50;4.45;;;;;;;;;;5066511;28;20251;-74
2022/08/27 03:29:53;;;;;;;9.10;4.20;;;;;;;;;;5046128;28;20223;-74
2022/08/27 03:32:21;;;;;;;7.78;4.18;;;;;;;;;;5078661;28;20638;-75
2022/08/27 03:34:49;;;;;;;8.80;4.68;;;;;;;;;;5069634;28;20245;-75
2022/08/27 03:37:17;;;;;;;9.50;5.03;;;;;;;;;;5045294;28;20226;-76
2022/08/27 03:39:42;;;;;;;9.38;3.92;;;;;;;;;;5060110;28;20225;-76
2022/08/27 03:42:15;;;;;;;9.38;4.70;;;;;;;;;;5074008;28;20214;-75
2022/08/27 03:44:45;;;;;;;9.60;4.50;;;;;;;;;;5041447;28;20440;-74
2022/08/27 03:47:13;;;;;;;5.93;4.00;;;;;;;;;;5067915;28;20237;-73
2022/08/27 03:49:41;;;;;;;11.38;4.90;;;;;;;;;;5046507;28;20633;-75
2022/08/27 03:52:07;;;;;;;10.50;4.75;;;;;;;;;;5075235;28;20214;-75
2022/08/27 03:54:37;;;;;;;6.80;4.25;;;;;;;;;;5041881;28;20232;-76
2022/08/27 03:57:03;;;;;;;10.13;4.57;;;;;;;;;;5059707;28;20211;-76
2022/08/27 03:59:28;;;;;;;12.18;4.60;;;;;;;;;;5080915;28;20218;-76
2022/08/27 04:01:54;;;;;;;12.35;4.38;;;;;;;;;;5077534;28;20245;-76
2022/08/27 04:04:25;;;;;;;8.25;4.50;;;;;;;;;;5080006;28;20214;-76
2022/08/27 04:06:50;;;;;;;7.43;4.20;;;;;;;;;;5077238;28;20757;-75
2022/08/27 04:09:18;;;;;;;6.63;4.25;;;;;;;;;;5058114;28;20214;-75
2022/08/27 04:11:46;;;;;;;11.00;4.50;;;;;;;;;;5067129;28;20312;-74
2022/08/27 04:14:16;;;;;;;8.65;4.78;;;;;;;;;;5066269;28;20248;-74
2022/08/27 04:16:42;;;;;;;6.65;4.40;;;;;;;;;;5059976;28;20238;-74
2022/08/27 04:19:11;;;;;;;7.28;4.28;;;;;;;;;;5048005;28;20218;-75
2022/08/27 04:21:37;;;;;;;8.05;4.60;;;;;;;;;;5065528;28;20718;-75
2022/08/27 04:24:02;;;;;;;8.75;4.90;;;;;;;;;;5058733;28;20233;-75
2022/08/27 04:26:30;;;;;;;6.80;4.40;;;;;;;;;;5059099;28;20222;-74
2022/08/27 04:28:57;;;;;;;9.73;4.10;;;;;;;;;;5040250;28;20291;-73
2022/08/27 04:31:22;;;;;;;8.65;4.13;;;;;;;;;;5055713;28;20329;-73
2022/08/27 04:33:52;;;;;;;7.13;4.05;;;;;;;;;;5067828;28;20223;-75
2022/08/27 04:36:18;;;;;;;10.48;4.75;;;;;;;;;;5056994;28;20363;-74
2022/08/27 04:38:43;;;;;;;6.45;4.05;;;;;;;;;;5043502;28;20253;-75
2022/08/27 04:41:26;;;;;;;7.50;4.30;;;;;;;;;;5073598;28;20221;-73
2022/08/27 04:43:58;;;;;;;7.57;4.20;;;;;;;;;;5058168;28;20227;-74
2022/08/27 04:46:28;;;;;;;9.13;4.53;;;;;;;;;;5055369;28;20218;-75
2022/08/27 04:48:55;;;;;;;8.00;4.47;;;;;;;;;;5058281;28;20230;-75
2022/08/27 04:51:25;;;;;;;6.35;4.28;;;;;;;;;;5050978;28;20764;-75
2022/08/27 04:53:53;;;;;;;9.00;4.32;;;;;;;;;;5072671;28;20222;-74
2022/08/27 04:56:20;;;;;;;10.02;4.32;;;;;;;;;;5040706;28;21025;-76
2022/08/27 04:58:49;;;;;;;9.23;4.45;;;;;;;;;;5039001;28;20253;-75
2022/08/27 05:01:25;;;;;;;7.45;4.20;;;;;;;;;;5038409;28;20641;-73
2022/08/27 05:03:51;;;;;;;8.35;4.00;;;;;;;;;;5062917;28;20233;-73
2022/08/27 05:06:16;;;;;;;7.53;3.90;;;;;;;;;;5063300;28;20216;-73
2022/08/27 05:08:44;;;;;;;9.02;4.22;;;;;;;;;;5057458;28;20280;-74
2022/08/27 05:11:14;;;;;;;8.70;4.68;;;;;;;;;;5035040;28;20215;-73
2022/08/27 05:13:45;;;;;;;6.53;4.13;;;;;;;;;;5060201;28;20219;-74
2022/08/27 05:16:15;;;;;;;11.63;4.18;;;;;;;;;;5056429;28;20757;-74
2022/08/27 05:18:45;;;;;;;6.63;4.10;;;;;;;;;;5055394;28;20222;-74
2022/08/27 05:21:24;;;;;;;12.02;4.50;;;;;;;;;;5036822;28;20684;-74
2022/08/27 05:23:53;;;;;;;7.07;4.50;;;;;;;;;;5059351;28;20229;-74
2022/08/27 05:26:18;;;;;;;7.32;4.40;;;;;;;;;;5066742;28;20226;-75
2022/08/27 05:28:47;;;;;;;5.72;3.75;;;;;;;;;;5079778;28;20218;-74
2022/08/27 05:31:14;;;;;;;7.63;4.82;;;;;;;;;;5062530;28;20237;-74
2022/08/27 05:33:41;;;;;;;14.02;5.03;;;;;;;;;;5064214;28;20299;-74
2022/08/27 05:36:21;;;;;;;8.18;5.47;;;;;;;;;;5066581;28;20233;-75
2022/08/27 05:38:49;;;;;;;8.45;4.90;;;;;;;;;;5065216;28;20222;-75
2022/08/27 05:41:19;;;;;;;8.73;5.13;;;;;;;;;;5047515;28;20219;-74
2022/08/27 05:43:47;;;;;;;10.57;5.47;;;;;;;;;;5063111;28;20304;-74
2022/08/27 05:46:14;;;;;;;7.45;4.95;;;;;;;;;;5079593;28;20775;-74
2022/08/27 05:48:40;;;;;;;9.80;4.90;;;;;;;;;;5063657;28;20308;-74
2022/08/27 05:51:09;;;;;;;11.52;5.45;;;;;;;;;;5036383;28;20214;-74
2022/08/27 05:53:37;;;;;;;10.35;5.60;;;;;;;;;;5084260;28;20721;-75
2022/08/27 05:56:03;;;;;;;8.77;5.78;;;;;;;;;;5072525;28;20229;-75
2022/08/27 06:01:13;;;;;;;9.27;5.85;;;;;;;;;;5065864;28;20713;-74
2022/08/27 06:03:40;;;;;;;7.20;5.32;;;;;;;;;;5048910;28;20213;-75
2022/08/27 06:06:08;;;;;;;9.57;5.60;;;;;;;;;;5078136;28;20230;-74
2022/08/27 06:08:37;;;;;;;8.27;5.80;;;;;;;;;;5059874;28;20222;-74
2022/08/27 06:11:06;;;;;;;9.18;6.65;;;;;;;;;;5052768;28;20229;-75
2022/08/27 06:13:33;;;;;;;7.60;6.43;;;;;;;;;;5059030;28;20218;-73
2022/08/27 06:16:12;;;;;;;9.63;7.43;;;;;;;;;;5033970;28;20218;-74
2022/08/27 06:18:38;;;;;;;11.25;7.97;;;;;;;;;;5065678;28;20215;-74
2022/08/27 06:21:06;;;;;;;10.70;7.22;;;;;;;;;;5069524;28;20226;-74
2022/08/27 06:23:34;;;;;;;10.40;7.65;;;;;;;;;;5048361;28;20222;-76
2022/08/27 06:26:04;;;;;;;10.55;6.95;;;;;;;;;;5032752;28;20253;-74
2022/08/27 06:28:34;;;;;;;9.75;7.15;;;;;;;;;;5080231;28;20223;-74
2022/08/27 06:31:06;;;;;;;12.40;6.93;;;;;;;;;;5043274;28;20221;-74
2022/08/27 06:33:34;;;;;;;12.02;6.82;;;;;;;;;;5073500;28;20234;-74
2022/08/27 06:36:03;;;;;;;9.38;6.97;;;;;;;;;;5032693;28;20733;-74
2022/08/27 06:38:29;;;;;;;12.48;6.95;;;;;;;;;;5049814;28;20573;-73
2022/08/27 06:40:55;;;;;;;11.18;7.60;;;;;;;;;;5075595;28;20233;-74
2022/08/27 06:43:21;;;;;;;10.57;7.57;;;;;;;;;;5058159;28;20221;-73
2022/08/27 06:45:49;;;;;;;11.45;7.38;;;;;;;;;;5060832;28;20224;-74
2022/08/27 06:48:15;;;;;;;8.18;7.13;;;;;;;;;;5065241;28;20219;-74
2022/08/27 06:50:41;;;;;;;10.57;7.65;;;;;;;;;;5053344;28;20219;-74
2022/08/27 06:53:06;;;;;;;10.45;7.53;;;;;;;;;;5039136;28;20223;-74
2022/08/27 06:55:35;;;;;;;12.15;7.57;;;;;;;;;;5081557;28;20210;-75
2022/08/27 06:58:00;;;;;;;13.38;8.57;;;;;;;;;;5067378;28;20218;-75
2022/08/27 07:00:26;;;;;;;17.70;7.85;;;;;;;;;;5064587;28;20711;-74
2022/08/27 07:02:52;;;;;;;10.60;7.32;;;;;;;;;;5072521;28;20272;-74
2022/08/27 07:05:22;;;;;;;11.32;7.35;;;;;;;;;;5063321;28;20229;-74
2022/08/27 07:07:47;;;;;;;9.93;6.47;;;;;;;;;;5036347;28;20222;-74
2022/08/27 07:10:13;;;;;;;10.68;6.20;;;;;;;;;;5078950;28;20276;-74
2022/08/27 07:12:38;;;;;;;9.63;6.00;;;;;;;;;;5065029;28;20228;-75
2022/08/27 07:15:05;;;;;;;9.63;5.90;;;;;;;;;;5069185;28;20214;-75
2022/08/27 07:17:30;;;;;;;8.32;5.85;;;;;;;;;;5061533;28;20744;-75
2022/08/27 07:19:58;;;;;;;7.13;5.35;;;;;;;;;;5046014;28;20248;-75
2022/08/27 07:22:28;;;;;;;12.85;5.22;;;;;;;;;;5075378;28;20216;-75
2022/08/27 07:24:56;;;;;;;8.43;4.80;;;;;;;;;;5078724;28;20226;-74
2022/08/27 07:27:22;;;;;;;7.97;4.75;;;;;;;;;;5077631;28;20230;-75
2022/08/27 07:29:47;;;;;;;6.13;4.55;;;;;;;;;;5080759;28;20776;-75
2022/08/27 07:32:16;;;;;;;9.95;4.50;;;;;;;;;;5064170;28;20241;-75
2022/08/27 07:34:49;;;;;;;6.13;4.05;;;;;;;;;;5049366;28;20230;-75
2022/08/27 07:37:14;;;;;;;8.80;4.80;;;;;;;;;;5061438;28;20731;-76
2022/08/27 07:39:44;;;;;;;7.47;4.05;;;;;;;;;;5047139;28;20221;-75
2022/08/27 07:44:56;;;;;;;5.75;3.63;;;;;;;;;;5068235;28;20651;-75
2022/08/27 07:47:24;;;;;;;7.00;3.92;;;;;;;;;;5065455;28;20214;-75
2022/08/27 07:49:53;;;;;;;6.80;3.83;;;;;;;;;;5079123;28;20210;-75
2022/08/27 07:52:18;;;;;;;7.90;4.00;;;;;;;;;;5068232;28;20222;-75
2022/08/27 07:54:46;;;;;;;6.90;3.72;;;;;;;;;;5083883;28;20226;-77
2022/08/27 07:57:14;;;;;;;6.20;3.42;;;;;;;;;;5069178;28;20304;-77
2022/08/27 07:59:40;;;;;;;6.85;3.72;;;;;;;;;;5070268;28;20229;-75
2022/08/27 08:02:05;;;;;;;5.18;3.70;;;;;;;;;;5055834;28;20218;-75
2022/08/27 08:04:31;;;;;;;6.20;3.75;;;;;;;;;;5068858;28;20230;-75
2022/08/27 08:06:57;;;;;;;8.90;3.63;;;;;;;;;;5063761;28;20230;-73
2022/08/27 08:09:23;;;;;;;7.63;3.50;;;;;;;;;;5037009;28;20321;-73
2022/08/27 08:11:50;;;;;;;4.07;3.22;;;;;;;;;;5064987;28;20223;-74
2022/08/27 08:14:16;;;;;;;6.85;3.38;;;;;;;;;;5073219;28;20268;-74
2022/08/27 08:16:42;;;;;;;6.55;3.55;;;;;;;;;;5059058;28;20223;-73
2022/08/27 08:19:08;;;;;;;4.45;3.03;;;;;;;;;;5043285;28;20215;-73
2022/08/27 08:21:38;;;;;;;7.07;3.55;;;;;;;;;;5041428;28;20226;-74
2022/08/27 08:24:05;;;;;;;4.25;3.17;;;;;;;;;;5034539;28;20301;-74
2022/08/27 08:26:32;;;;;;;5.40;3.53;;;;;;;;;;5052333;28;20216;-73
2022/08/27 08:28:59;;;;;;;6.95;3.50;;;;;;;;;;5038382;28;20207;-74
2022/08/27 08:31:27;;;;;;;7.55;3.70;;;;;;;;;;5056611;28;20223;-74
2022/08/27 08:33:53;;;;;;;7.55;3.65;;;;;;;;;;5037099;28;20247;-74
2022/08/27 08:36:21;;;;;;;7.95;4.13;;;;;;;;;;5014735;28;20252;-74
2022/08/27 08:38:49;;;;;;;8.52;4.10;;;;;;;;;;5045920;28;20218;-76
2022/08/27 08:41:26;;;;;;;9.95;4.13;;;;;;;;;;5084058;28;20255;-75
2022/08/27 08:43:52;;;;;;;8.43;3.45;;;;;;;;;;5076996;28;20224;-75
2022/08/27 08:46:36;;;;;;;10.90;3.53;;;;;;;;;;5068815;28;20234;-74
2022/08/27 08:49:12;;;;;;;7.13;3.00;;;;;;;;;;5032588;28;20313;-74
2022/08/27 08:51:40;;;;;;;9.63;3.78;;;;;;;;;;5030577;28;20218;-73
2022/08/27 08:54:08;;;;;;;4.85;3.33;;;;;;;;;;5030083;28;20837;-74
2022/08/27 08:56:59;;;;;;;8.68;3.35;;;;;;;;;;5050780;28;20240;-74
2022/08/27 08:59:38;;;;;;;12.98;3.58;;;;;;;;;;5046798;28;20232;-74
2022/08/27 09:02:10;;;;;;;6.40;3.38;;;;;;;;;;5060699;28;20210;-74
2022/08/27 09:04:36;;;;;;;5.18;3.33;;;;;;;;;;5042698;28;20313;-73
2022/08/27 09:07:39;;;;;;;8.43;3.78;;;;;;;;;;5047792;28;20768;-72
2022/08/27 09:10:33;;;;;;;9.02;3.30;;;;;;;;;;5083610;28;20794;-72
2022/08/27 09:13:02;;;;;;;5.68;3.00;;;;;;;;;;5079356;28;20687;-72
2022/08/27 09:15:30;;;;;;;6.47;3.90;;;;;;;;;;5020711;28;20629;-73
2022/08/27 09:18:12;;;;;;;6.38;3.13;;;;;;;;;;5023893;28;20967;-72
2022/08/27 09:20:38;;;;;;;6.70;3.40;;;;;;;;;;5073032;28;20222;-73
2022/08/27 09:23:11;;;;;;;7.88;3.30;;;;;;;;;;5012455;28;20226;-73
2022/08/27 09:25:41;;;;;;;6.53;3.33;;;;;;;;;;5059998;28;20223;-72
2022/08/27 09:31:04;;;;;;;6.47;3.05;;;;;;;;;;5046604;28;20227;-73
2022/08/27 09:33:30;;;;;;;8.00;3.40;;;;;;;;;;5063725;28;20726;-74
2022/08/27 09:36:00;;;;;;;5.95;3.20;;;;;;;;;;5058687;28;20218;-74
2022/08/27 09:38:27;;;;;;;8.25;3.90;;;;;;;;;;5043379;28;20225;-74
2022/08/27 09:40:55;;;;;;;8.77;3.70;;;;;;;;;;5061048;28;20325;-73
2022/08/27 09:43:22;;;;;;;8.50;3.10;;;;;;;;;;5044231;28;20227;-74
2022/08/27 09:45:53;;;;;;;8.90;3.25;;;;;;;;;;5054666;28;20231;-72
2022/08/27 09:48:20;;;;;;;8.07;3.28;;;;;;;;;;5059098;28;20222;-73
2022/08/27 09:50:53;;;;;;;7.05;3.22;;;;;;;;;;5040199;28;20222;-73
2022/08/27 09:53:22;;;;;;;11.93;3.00;;;;;;;;;;5040034;28;20216;-73
2022/08/27 09:55:52;;;;;;;8.05;2.97;;;;;;;;;;5060851;28;20665;-74
2022/08/27 09:58:23;;;;;;;12.02;3.00;;;;;;;;;;5045744;28;20706;-73
2022/08/27 10:00:56;;;;;;;6.75;3.00;;;;;;;;;;5027492;28;20229;-72
2022/08/27 10:03:22;;;;;;;5.40;2.80;;;;;;;;;;5081388;28;20237;-73
2022/08/27 10:05:52;;;;;;;7.80;3.22;;;;;;;;;;5075956;28;20226;-73
2022/08/27 10:08:24;;;;;;;4.97;2.80;;;;;;;;;;5045228;28;20231;-73
2022/08/27 10:11:02;;;;;;;10.00;3.50;;;;;;;;;;5036123;28;20746;-73
2022/08/27 10:13:49;;;;;;;8.93;3.13;;;;;;;;;;5053446;28;20234;-72
2022/08/27 10:16:29;;;;;;;6.70;2.97;;;;;;;;;;5043773;28;20571;-73
2022/08/27 10:19:15;;;;;;;5.75;2.97;;;;;;;;;;5067904;28;20226;-73
2022/08/27 10:21:46;;;;;;;6.70;2.88;;;;;;;;;;5037318;28;20226;-74
2022/08/27 10:24:34;;;;;;;8.25;2.83;;;;;;;;;;5047869;28;20222;-74
2022/08/27 10:27:22;;;;;;;6.65;2.85;;;;;;;;;;5057317;28;20230;-73
2022/08/27 10:30:03;;;;;;;9.63;2.63;;;;;;;;;;5081181;28;20228;-74
2022/08/27 10:32:38;;;;;;;6.95;3.05;;;;;;;;;;5063468;28;20878;-72
2022/08/27 10:35:06;;;;;;;8.45;2.80;;;;;;;;;;5083526;28;20844;-75
2022/08/27 10:37:40;;;;;;;7.68;3.10;;;;;;;;;;5079838;28;20218;-73
2022/08/27 10:40:07;;;;;;;6.13;3.20;;;;;;;;;;5034545;28;20234;-73
2022/08/27 10:42:39;;;;;;;9.02;2.88;;;;;;;;;;5075048;28;20724;-73
2022/08/27 10:45:23;;;;;;;7.60;2.95;;;;;;;;;;5044306;28;20725;-73
2022/08/27 10:48:11;;;;;;;8.77;3.00;;;;;;;;;;5063616;28;20227;-72
2022/08/27 10:50:44;;;;;;;5.28;2.70;;;;;;;;;;5069291;28;20226;-73
2022/08/27 10:53:47;;;;;;;8.07;2.90;;;;;;;;;;5076595;28;20222;-73
2022/08/27 10:56:28;;;;;;;4.03;2.80;;;;;;;;;;5068582;28;20221;-73
2022/08/27 10:59:32;;;;;;;9.10;2.92;;;;;;;;;;5051186;28;20229;-72
2022/08/27 11:02:22;;;;;;;6.15;3.15;;;;;;;;;;5085454;28;20218;-73
2022/08/27 11:04:51;;;;;;;5.68;2.45;;;;;;;;;;5049541;28;20296;-72
2022/08/27 11:07:24;;;;;;;3.95;2.45;;;;;;;;;;5034219;28;20231;-72
2022/08/27 11:09:53;;;;;;;4.95;2.38;;;;;;;;;;5052108;28;20253;-73
2022/08/27 11:12:27;;;;;;;5.88;2.38;;;;;;;;;;5066996;28;20218;-73
2022/08/27 11:14:59;;;;;;;5.97;2.00;;;;;;;;;;5068832;28;20289;-73
2022/08/27 11:17:43;;;;;;;4.43;2.08;;;;;;;;;;5068766;28;20770;-73
2022/08/27 11:20:11;;;;;;;5.65;2.20;;;;;;;;;;5059113;28;20224;-73
2022/08/27 11:22:56;;;;;;;3.70;1.92;;;;;;;;;;5076952;28;20219;-72
2022/08/27 11:25:21;;;;;;;5.70;2.17;;;;;;;;;;5067526;28;20241;-72
2022/08/27 11:27:52;;;;;;;3.47;2.35;;;;;;;;;;5077449;28;20310;-73
2022/08/27 11:30:24;;;;;;;6.03;2.60;;;;;;;;;;5076612;28;20272;-72
2022/08/27 11:33:11;;;;;;;5.90;2.17;;;;;;;;;;5044823;28;20709;-73
2022/08/27 11:36:12;;;;;;;6.93;2.55;;;;;;;;;;5087209;28;20231;-72
2022/08/27 11:38:53;;;;;;;3.90;2.47;;;;;;;;;;5051986;28;20231;-72
2022/08/27 11:41:47;;;;;;;6.78;2.60;;;;;;;;;;5075171;28;20222;-73
2022/08/27 11:44:13;;;;;;;7.13;2.95;;;;;;;;;;5075173;28;20224;-72
2022/08/27 11:46:42;;;;;;;5.25;2.95;;;;;;;;;;5043718;28;20230;-73
2022/08/27 11:49:08;;;;;;;6.30;2.90;;;;;;;;;;5059808;28;20718;-73
2022/08/27 11:51:36;;;;;;;5.57;2.70;;;;;;;;;;5024071;28;20226;-73
2022/08/27 11:54:05;;;;;;;6.07;2.67;;;;;;;;;;5066239;28;20265;-79
2022/08/27 11:56:36;;;;;;;8.57;2.88;;;;;;;;;;5066513;28;20226;-73
2022/08/27 11:59:18;;;;;;;6.68;3.40;;;;;;;;;;5046386;28;20316;-72
2022/08/27 12:01:44;;;;;;;7.70;2.83;;;;;;;;;;5046736;28;20226;-72
2022/08/27 12:04:24;;;;;;;7.47;2.88;;;;;;;;;;5047592;28;20230;-73
2022/08/27 12:07:02;;;;;;;6.00;2.60;;;;;;;;;;5056472;28;20237;-72
2022/08/27 12:09:28;;;;;;;4.18;2.65;;;;;;;;;;5038474;28;20231;-73
2022/08/27 12:12:00;;;;;;;3.97;2.50;;;;;;;;;;5057675;28;20232;-73
2022/08/27 12:14:28;;;;;;;7.38;2.92;;;;;;;;;;5058204;28;20230;-73
2022/08/27 12:17:23;;;;;;;4.30;2.38;;;;;;;;;;5077595;28;20941;-73
2022/08/27 12:20:24;;;;;;;3.85;2.25;;;;;;;;;;5068419;28;20222;-73
2022/08/27 12:25:36;;;;;;;4.60;2.47;;;;;;;;;;5056955;28;20234;-73
2022/08/27 12:28:04;;;;;;;4.85;2.35;;;;;;;;;;5064532;28;20226;-73
2022/08/27 12:30:50;;;;;;;6.88;2.92;;;;;;;;;;5061246;28;20221;-74
2022/08/27 12:33:31;;;;;;;4.03;2.42;;;;;;;;;;5062553;28;20248;-72
2022/08/27 12:36:06;;;;;;;4.95;2.22;;;;;;;;;;5052423;28;20226;-73
2022/08/27 12:38:32;;;;;;;4.72;2.28;;;;;;;;;;5070800;28;20223;-73
2022/08/27 12:41:02;;;;;;;5.93;2.30;;;;;;;;;;5059913;28;20226;-73
2022/08/27 12:43:32;;;;;;;3.67;2.47;;;;;;;;;;5080028;28;20292;-73
2022/08/27 12:46:05;;;;;;;5.47;2.28;;;;;;;;;;5059518;28;20314;-73
2022/08/27 12:48:41;;;;;;;8.90;2.45;;;;;;;;;;5070035;28;20210;-72
2022/08/27 12:51:12;;;;;;;5.72;2.13;;;;;;;;;;5072384;28;20256;-75
2022/08/27 12:54:05;;;;;;;6.13;2.35;;;;;;;;;;5023782;28;20333;-72
2022/08/27 12:56:49;;;;;;;7.22;2.50;;;;;;;;;;5050396;28;20704;-72
2022/08/27 12:59:23;;;;;;;5.13;2.05;;;;;;;;;;5060209;28;20727;-71
2022/08/27 13:02:25;;;;;;;5.13;2.10;;;;;;;;;;5059809;28;20313;-72
2022/08/27 13:04:50;;;;;;;7.00;2.13;;;;;;;;;;5085350;28;20214;-72
2022/08/27 13:07:26;;;;;;;4.72;2.10;;;;;;;;;;5048923;28;21037;-72
2022/08/27 13:09:52;;;;;;;5.55;2.10;;;;;;;;;;5024383;28;20249;-73
2022/08/27 13:12:18;;;;;;;5.22;2.10;;;;;;;;;;5022889;28;20210;-72
2022/08/27 13:14:44;;;;;;;6.88;2.20;;;;;;;;;;5028183;28;20237;-73
2022/08/27 13:17:13;;;;;;;6.93;2.10;;;;;;;;;;5038649;28;20492;-72
2022/08/27 13:19:52;;;;;;;7.25;2.13;;;;;;;;;;5049180;28;20305;-71
2022/08/27 13:22:21;;;;;;;4.20;1.73;;;;;;;;;;5046524;28;20276;-71
2022/08/27 13:24:49;;;;;;;4.65;2.00;;;;;;;;;;5060490;28;20225;-70
2022/08/27 13:27:14;;;;;;;5.32;1.65;;;;;;;;;;5076452;28;20803;-71
2022/08/27 13:29:43;;;;;;;4.57;1.73;;;;;;;;;;5045667;28;20284;-70
2022/08/27 13:32:09;;;;;;;3.90;1.60;;;;;;;;;;5064071;28;20230;-71
2022/08/27 13:34:36;;;;;;;2.53;1.63;;;;;;;;;;5059944;28;20226;-72
2022/08/27 13:37:24;;;;;;;4.75;1.75;;;;;;;;;;5057258;28;20263;-72
2022/08/27 13:39:56;;;;;;;4.15;1.45;;;;;;;;;;5032200;28;20230;-74
2022/08/27 13:42:24;;;;;;;4.82;1.88;;;;;;;;;;5031050;28;20270;-72
2022/08/27 13:44:50;;;;;;;3.28;1.83;;;;;;;;;;5057416;28;20231;-73
2022/08/27 13:47:21;;;;;;;6.07;2.42;;;;;;;;;;5044787;28;20215;-73
2022/08/27 13:49:49;;;;;;;4.28;1.70;;;;;;;;;;5041685;28;20225;-74
2022/08/27 13:52:25;;;;;;;2.78;1.73;;;;;;;;;;5051007;28;20581;-74
2022/08/27 13:54:58;;;;;;;3.88;1.52;;;;;;;;;;5069852;28;20313;-74
2022/08/27 13:57:30;;;;;;;3.42;1.35;;;;;;;;;;5073505;28;20271;-75
2022/08/27 14:00:10;;;;;;;4.75;1.83;;;;;;;;;;5053403;28;20248;-75
2022/08/27 14:02:36;;;;;;;6.45;1.77;;;;;;;;;;5051731;28;20268;-75
2022/08/27 14:05:11;;;;;;;4.20;1.90;;;;;;;;;;5069748;28;20230;-74
2022/08/27 14:07:46;;;;;;;3.55;2.00;;;;;;;;;;5050903;28;20599;-73
2022/08/27 14:10:17;;;;;;;2.85;1.70;;;;;;;;;;5088602;28;20225;-74
2022/08/27 14:12:52;;;;;;;4.78;1.75;;;;;;;;;;5077209;28;20582;-74
2022/08/27 14:15:33;;;;;;;3.95;1.52;;;;;;;;;;5060882;28;20317;-73
2022/08/27 14:18:00;;;;;;;5.28;1.85;;;;;;;;;;5049764;28;20227;-74
2022/08/27 14:20:25;;;;;;;4.53;1.80;;;;;;;;;;5048837;28;20229;-74
2022/08/27 14:22:51;;;;;;;5.25;2.20;;;;;;;;;;5065062;28;20226;-74
2022/08/27 14:25:17;;;;;;;6.93;1.95;;;;;;;;;;5025821;28;20700;-74
2022/08/27 14:27:45;;;;;;;3.78;1.70;;;;;;;;;;5046226;28;20300;-74
2022/08/27 14:30:13;;;;;;;6.22;2.00;;;;;;;;;;5052962;28;20230;-74
2022/08/27 14:32:40;;;;;;;3.60;1.63;;;;;;;;;;5061408;28;20227;-77
2022/08/27 14:35:09;;;;;;;5.78;1.90;;;;;;;;;;5066942;27;20218;-74
2022/08/27 14:37:38;;;;;;;7.20;1.73;;;;;;;;;;5060582;28;20234;-76
2022/08/27 14:40:11;;;;;;;3.33;1.73;;;;;;;;;;5052213;28;20226;-74
2022/08/27 14:42:37;;;;;;;5.93;1.90;;;;;;;;;;5049231;28;20288;-74
2022/08/27 14:45:04;;;;;;;4.85;2.03;;;;;;;;;;5061580;28;20309;-75
2022/08/27 14:47:32;;;;;;;6.47;1.77;;;;;;;;;;5064870;28;20284;-75
2022/08/27 14:49:58;;;;;;;4.43;1.48;;;;;;;;;;5047758;28;20288;-74
2022/08/27 14:52:23;;;;;;;6.25;1.80;;;;;;;;;;5028862;28;20229;-74
2022/08/27 14:54:49;;;;;;;8.82;2.00;;;;;;;;;;5075086;28;20222;-74
2022/08/27 14:57:15;;;;;;;5.13;1.83;;;;;;;;;;5031399;28;20215;-74
2022/08/27 14:59:43;;;;;;;5.93;1.98;;;;;;;;;;5056622;28;20215;-74
2022/08/27 15:02:12;;;;;;;5.00;1.98;;;;;;;;;;5054186;28;20351;-73
2022/08/27 15:04:43;;;;;;;4.47;1.60;;;;;;;;;;5078079;28;20782;-73
2022/08/27 15:07:11;;;;;;;6.72;1.80;;;;;;;;;;5065366;28;20241;-74
2022/08/27 15:09:36;;;;;;;3.10;1.60;;;;;;;;;;5066807;28;20221;-73
2022/08/27 15:12:05;;;;;;;6.90;2.10;;;;;;;;;;5093887;28;20806;-75
2022/08/27 15:14:32;;;;;;;5.25;1.80;;;;;;;;;;5079707;28;20356;-74